General Aviation Weather

Text Reports

Enter one or more of the following location identifiers separated by a space:

Zip Code, Four-Character ICAO or Three-Character IATA airport codes.

METAR - Aviation Routine Weather Report
KHAO - Hamilton, Ohio
Updated at 9:53 PM GMT on October 20, 2014 (5:53 PM EDT):
METAR KHAO 202153Z AUTO 00000KT 10SM SCT039 SCT048 BKN060 17/12 A2986 RMK AO2 SLP112 T01720117
TAF - Terminal Area Forecast
KHAO - Hamilton, Ohio
Updated at 9:53 PM GMT on October 20, 2014 (5:53 PM EDT):
No TAF is currently available for this location.
Decoded:
No decoded TAF is available.
PIREP - Pilot Weather Report
KHAO - Hamilton, Ohio
Updated at 9:53 PM GMT on October 20, 2014 (5:53 PM EDT):
No PIREP is currently available for this location.
AIRMET - Airmens Meteorological Information
KHAO - Hamilton, Ohio
Updated at 9:53 PM GMT on October 20, 2014 (5:53 PM EDT):
No AIRMET is currently available for this location.
SIGMET - Significant Meteorological Information
KHAO - Hamilton, Ohio
Updated at 9:53 PM GMT on October 20, 2014 (5:53 PM EDT):
No SIGMET is currently available for this location.
NOTAM - Notice to Airmen
KHAO - Hamilton, Ohio
Updated at 9:53 PM GMT on October 20, 2014 (5:53 PM EDT):
No NOTAM is currently available for this location.
Forecast Area
KHAO - Hamilton, Ohio
Updated at 9:53 PM GMT on October 20, 2014 (5:53 PM EDT):
No NOTAM is currently available for this location.
Aviation Weather Maps